Terminal Aerodrome Forecast
Issued by NWS

Current Version | Previous Version | Text Only | Print | Product List | Glossary On
Versions: 1 2 3 4 5 6 7 8 9 10 11 12 13 14 15 16 17
000
FTUS43 KDTX 031723
TAFMBS
TAF
KMBS 031723Z 0318/0418 14012KT 1SM -SN BR SCT008 OVC015
     FM032000 20013KT 2SM -FZRA BR BKN010 OVC030
     FM032300 22013KT 2SM -DZ BR OVC005
     FM040200 24013KT 6SM BR OVC015
     FM040600 28010KT P6SM BKN025 BKN100
     FM041000 28008KT P6SM SCT025 BKN100
     FM041400 27010KT P6SM BKN025=

USA.gov is the U.S. government's official web portal to all federal, state and local government web resources and services.